Time;durP1;ratioP1;P1;durP2;ratioP2;P2;SDS_P1;SDS_P2;PMS_P1;PMS_P2;Temp;Humidity;BMP_temperature;BMP_pressure;BME280_temperature;BME280_humidity;BME280_pressure;Samples;Min_cycle;Max_cycle;Signal;HPM_P1;HPM_P2
2022/04/17 00:00:10;;;;;;;9.07;4.20;;;5.90;99.90;;;;;;4994247;28;20081;-81
2022/04/17 00:02:39;;;;;;;8.80;4.43;;;5.80;99.90;;;;;;4996324;28;20038;-80
2022/04/17 00:05:06;;;;;;;6.20;4.40;;;5.80;99.90;;;;;;4995874;28;20035;-80
2022/04/17 00:07:32;;;;;;;7.80;4.55;;;5.80;99.90;;;;;;4996277;28;20046;-81
2022/04/17 00:09:58;;;;;;;13.63;6.00;;;5.80;99.90;;;;;;5010678;28;20133;-81
2022/04/17 00:12:25;;;;;;;7.85;4.55;;;5.70;99.90;;;;;;4994817;28;20498;-80
2022/04/17 00:14:51;;;;;;;7.72;4.75;;;5.70;99.90;;;;;;4995644;28;20042;-80
2022/04/17 00:17:18;;;;;;;7.13;4.57;;;5.70;99.90;;;;;;4995843;28;20038;-81
2022/04/17 00:19:43;;;;;;;9.32;4.53;;;5.70;99.90;;;;;;4995293;28;20057;-81
2022/04/17 00:22:09;;;;;;;11.18;5.25;;;5.70;99.90;;;;;;4995721;28;20038;-81
2022/04/17 00:24:34;;;;;;;7.72;4.75;;;5.70;99.90;;;;;;4978622;28;20121;-81
2022/04/17 00:27:00;;;;;;;11.18;4.60;;;5.70;99.90;;;;;;4995471;28;20070;-81
2022/04/17 00:29:29;;;;;;;11.02;5.03;;;5.60;99.90;;;;;;4996185;28;20121;-81
2022/04/17 00:31:56;;;;;;;7.70;4.53;;;5.60;99.90;;;;;;4995011;28;20046;-80
2022/04/17 00:34:23;;;;;;;9.88;4.88;;;5.70;99.90;;;;;;4979433;28;20122;-80
2022/04/17 00:36:48;;;;;;;6.72;4.13;;;5.60;99.90;;;;;;4994551;28;20227;-80
2022/04/17 00:39:14;;;;;;;9.70;5.00;;;5.60;99.90;;;;;;4994598;28;20455;-80
2022/04/17 00:41:40;;;;;;;9.00;5.03;;;5.60;99.90;;;;;;5011956;28;20096;-80
2022/04/17 00:44:15;;;;;;;9.38;5.05;;;5.50;99.90;;;;;;4994117;28;20048;-80
2022/04/17 00:46:41;;;;;;;8.40;4.53;;;5.50;99.90;;;;;;4978883;28;20473;-80
2022/04/17 00:49:07;;;;;;;10.02;4.95;;;5.50;99.90;;;;;;4978821;28;20049;-80
2022/04/17 00:51:36;;;;;;;10.07;5.45;;;5.50;99.90;;;;;;5011192;28;20125;-80
2022/04/17 00:54:08;;;;;;;8.45;5.82;;;5.40;99.90;;;;;;4994790;28;20042;-81
2022/04/17 00:56:34;;;;;;;7.40;4.70;;;5.40;99.90;;;;;;5010303;28;20050;-79
2022/04/17 00:59:02;;;;;;;8.30;4.82;;;5.40;99.90;;;;;;4976543;28;20100;-79
2022/04/17 01:01:32;;;;;;;8.02;4.70;;;5.30;99.90;;;;;;4993489;28;20481;-79
2022/04/17 01:03:58;;;;;;;8.68;4.82;;;5.40;99.90;;;;;;4994174;28;20065;-79
2022/04/17 01:06:24;;;;;;;13.13;5.53;;;5.40;99.90;;;;;;5009068;28;20045;-79
2022/04/17 01:08:50;;;;;;;9.25;5.22;;;5.40;99.90;;;;;;4993778;28;20042;-79
2022/04/17 01:11:17;;;;;;;8.75;5.45;;;5.40;99.90;;;;;;4992993;28;20046;-79
2022/04/17 01:13:43;;;;;;;8.90;4.95;;;5.30;99.90;;;;;;4992310;28;20050;-80
2022/04/17 01:16:09;;;;;;;12.45;5.60;;;5.40;99.90;;;;;;4992372;28;20400;-79
2022/04/17 01:19:13;;;;;;;10.80;5.60;;;5.30;99.90;;;;;;4992122;28;20050;-79
2022/04/17 01:21:43;;;;;;;9.57;5.35;;;5.30;99.90;;;;;;4952610;28;20065;-79
2022/04/17 01:27:03;;;;;;;9.90;4.95;;;5.20;99.90;;;;;;4989693;28;20053;-78
2022/04/17 01:29:34;;;;;;;8.25;5.28;;;5.20;99.90;;;;;;5014114;28;20046;-79
2022/04/17 01:32:05;;;;;;;8.93;5.55;;;5.20;99.90;;;;;;4992176;28;20072;-79
2022/04/17 01:34:31;;;;;;;6.93;4.88;;;5.20;99.90;;;;;;4992540;28;20042;-79
2022/04/17 01:36:57;;;;;;;9.82;5.15;;;5.30;99.90;;;;;;4992358;28;20092;-79
2022/04/17 01:39:23;;;;;;;8.63;5.40;;;5.20;99.90;;;;;;4991108;28;20096;-79
2022/04/17 01:41:50;;;;;;;11.23;5.38;;;5.20;99.90;;;;;;4992541;28;20047;-79
2022/04/17 01:44:16;;;;;;;11.25;5.47;;;5.20;99.90;;;;;;4975060;28;20045;-79
2022/04/17 01:46:42;;;;;;;7.65;4.82;;;5.10;99.90;;;;;;4992465;28;20042;-79
2022/04/17 01:49:08;;;;;;;9.65;5.40;;;5.10;99.90;;;;;;4991323;28;20113;-79
2022/04/17 01:51:38;;;;;;;8.50;5.10;;;5.20;99.90;;;;;;4990925;28;20121;-79
2022/04/17 01:54:06;;;;;;;9.55;5.38;;;5.20;99.90;;;;;;4990994;28;20049;-79
2022/04/17 01:56:31;;;;;;;7.90;5.07;;;5.20;99.90;;;;;;4992323;28;20077;-79
2022/04/17 01:58:57;;;;;;;9.40;4.85;;;5.20;99.90;;;;;;4974958;28;20085;-79
2022/04/17 02:01:23;;;;;;;11.43;5.35;;;5.20;99.90;;;;;;4990864;28;20046;-79
2022/04/17 02:03:48;;;;;;;13.18;5.80;;;5.10;99.90;;;;;;4991058;28;20030;-79
2022/04/17 02:06:14;;;;;;;10.68;5.38;;;5.10;99.90;;;;;;4991080;28;20042;-79
2022/04/17 02:08:40;;;;;;;12.38;5.35;;;5.00;99.90;;;;;;4991219;28;20053;-79
2022/04/17 02:11:06;;;;;;;12.80;5.90;;;5.00;99.90;;;;;;4990824;28;20049;-79
2022/04/17 02:13:31;;;;;;;9.27;5.32;;;5.00;99.90;;;;;;4990876;28;20143;-79
2022/04/17 02:15:57;;;;;;;8.38;5.07;;;4.90;99.90;;;;;;4990977;28;20050;-79
2022/04/17 02:18:25;;;;;;;8.85;4.95;;;4.90;99.90;;;;;;5007484;28;20062;-79
2022/04/17 02:20:52;;;;;;;10.63;5.40;;;4.90;99.90;;;;;;4990979;28;20046;-79
2022/04/17 02:23:17;;;;;;;9.27;5.38;;;4.80;99.90;;;;;;4991086;28;20049;-79
2022/04/17 02:25:43;;;;;;;10.32;5.45;;;4.80;99.90;;;;;;4990766;28;20042;-79
2022/04/17 02:28:09;;;;;;;8.93;4.80;;;4.90;99.90;;;;;;4990526;28;20038;-80
2022/04/17 02:30:35;;;;;;;12.10;5.85;;;4.70;99.90;;;;;;4990646;28;20046;-79
2022/04/17 02:33:01;;;;;;;10.80;5.40;;;4.70;99.90;;;;;;4992103;28;20133;-79
2022/04/17 02:35:26;;;;;;;9.68;5.13;;;4.70;99.90;;;;;;5007342;28;20146;-79
2022/04/17 02:37:52;;;;;;;13.00;4.90;;;4.70;99.90;;;;;;4990835;28;20034;-79
2022/04/17 02:40:18;;;;;;;9.35;4.72;;;4.70;99.90;;;;;;4993344;28;20046;-79
2022/04/17 02:42:43;;;;;;;12.15;5.90;;;4.60;99.90;;;;;;4994571;28;20045;-79
2022/04/17 02:45:09;;;;;;;8.82;5.22;;;4.60;99.90;;;;;;4996083;28;20113;-79
2022/04/17 02:47:44;;;;;;;11.25;6.38;;;4.60;99.90;;;;;;4995817;28;20039;-79
2022/04/17 02:50:15;;;;;;;9.48;5.70;;;4.60;99.90;;;;;;4994466;28;20419;-79
2022/04/17 02:52:41;;;;;;;10.18;5.30;;;4.60;99.90;;;;;;4994671;28;20061;-79
2022/04/17 02:55:07;;;;;;;9.18;5.75;;;4.60;99.90;;;;;;4994657;28;20498;-79
2022/04/17 02:57:33;;;;;;;11.38;5.78;;;4.50;99.90;;;;;;4995712;28;20053;-79
2022/04/17 02:59:59;;;;;;;6.82;4.68;;;4.50;99.90;;;;;;4995585;28;20484;-80
2022/04/17 03:07:54;;;;;;;9.60;5.72;;;4.50;99.90;;;;;;4996231;28;20081;-80
2022/04/17 03:10:20;;;;;;;10.80;5.85;;;4.50;99.90;;;;;;4995562;28;20042;-80
2022/04/17 03:12:46;;;;;;;11.27;5.82;;;4.40;99.90;;;;;;4995531;28;20046;-80
2022/04/17 03:15:11;;;;;;;10.40;5.53;;;4.50;99.90;;;;;;4996685;28;20601;-80
2022/04/17 03:17:38;;;;;;;8.55;5.43;;;4.40;99.90;;;;;;4996518;28;20046;-80
2022/04/17 03:20:04;;;;;;;9.27;6.03;;;4.40;99.90;;;;;;4994717;28;20049;-80
2022/04/17 03:22:32;;;;;;;11.70;6.13;;;4.30;99.90;;;;;;4996591;28;20338;-80
2022/04/17 03:24:59;;;;;;;10.57;5.22;;;4.30;99.90;;;;;;4996010;28;20034;-81
2022/04/17 03:27:25;;;;;;;12.82;5.80;;;4.30;99.90;;;;;;4995029;28;20042;-80
2022/04/17 03:29:50;;;;;;;11.20;6.35;;;4.30;99.90;;;;;;4996326;28;20122;-80
2022/04/17 03:32:16;;;;;;;9.65;5.93;;;4.30;99.90;;;;;;4996046;28;20134;-80
2022/04/17 03:34:42;;;;;;;12.75;6.70;;;4.20;99.90;;;;;;4978341;28;20082;-80
2022/04/17 03:37:08;;;;;;;12.52;6.97;;;4.20;99.90;;;;;;4995796;28;20038;-80
2022/04/17 03:39:34;;;;;;;10.75;7.25;;;4.20;99.90;;;;;;4995417;28;20046;-80
2022/04/17 03:42:00;;;;;;;12.90;7.90;;;4.20;99.90;;;;;;4996713;28;20160;-80
2022/04/17 03:44:26;;;;;;;9.88;6.05;;;4.10;99.90;;;;;;4994901;28;20556;-80
2022/04/17 03:46:52;;;;;;;14.40;6.32;;;4.10;99.90;;;;;;4995214;28;20152;-80
2022/04/17 03:49:17;;;;;;;12.35;6.78;;;4.00;99.90;;;;;;4996721;28;20038;-80
2022/04/17 03:51:43;;;;;;;9.40;6.07;;;4.00;99.90;;;;;;4993879;28;20046;-80
2022/04/17 03:54:09;;;;;;;11.68;6.13;;;3.90;99.90;;;;;;4979148;28;20053;-80
2022/04/17 03:56:34;;;;;;;9.43;5.65;;;3.80;99.90;;;;;;4979853;28;20054;-80
2022/04/17 03:59:01;;;;;;;11.95;6.57;;;3.80;99.90;;;;;;4979471;28;20046;-80
2022/04/17 04:01:27;;;;;;;10.15;5.57;;;3.70;99.90;;;;;;4995575;28;20548;-81
2022/04/17 04:03:56;;;;;;;9.20;5.50;;;3.60;99.90;;;;;;4996289;28;20041;-80
2022/04/17 04:06:22;;;;;;;15.10;6.72;;;3.50;99.90;;;;;;4996550;28;20034;-80
2022/04/17 04:08:49;;;;;;;13.52;6.63;;;3.30;99.90;;;;;;4996123;28;20070;-80
2022/04/17 04:11:15;;;;;;;9.93;5.88;;;3.40;99.90;;;;;;4996821;28;20050;-80
2022/04/17 04:13:42;;;;;;;11.13;7.05;;;3.40;99.90;;;;;;5003264;28;20065;-80
2022/04/17 04:16:08;;;;;;;11.48;5.60;;;3.40;99.90;;;;;;5020261;28;20038;-81
2022/04/17 04:18:34;;;;;;;11.35;6.47;;;3.20;99.90;;;;;;5000229;28;20038;-80
2022/04/17 04:21:00;;;;;;;9.32;6.20;;;3.20;99.90;;;;;;4993875;28;20057;-80
2022/04/17 04:23:26;;;;;;;10.00;6.15;;;3.20;99.90;;;;;;4993016;28;20436;-80
2022/04/17 04:25:51;;;;;;;11.02;6.70;;;3.20;99.90;;;;;;4994149;28;20038;-80
2022/04/17 04:28:33;;;;;;;11.95;6.03;;;3.20;99.90;;;;;;4993050;28;20440;-80
2022/04/17 04:31:16;;;;;;;11.00;6.63;;;3.20;99.90;;;;;;4992360;28;20050;-80
2022/04/17 04:33:42;;;;;;;10.30;6.10;;;3.20;99.90;;;;;;4992638;28;20050;-79
2022/04/17 04:36:13;;;;;;;13.43;6.20;;;3.20;99.90;;;;;;4993782;28;20092;-79
2022/04/17 04:38:39;;;;;;;11.38;6.40;;;3.30;99.90;;;;;;4992588;28;20043;-79
2022/04/17 04:41:05;;;;;;;9.07;5.55;;;3.30;99.90;;;;;;4993275;28;20088;-79
2022/04/17 04:43:31;;;;;;;10.70;6.22;;;3.30;99.90;;;;;;4992582;28;20077;-79
2022/04/17 04:46:12;;;;;;;11.13;6.43;;;3.30;99.90;;;;;;4976423;28;20121;-79
2022/04/17 04:51:27;;;;;;;14.40;6.35;;;3.30;99.90;;;;;;4991941;28;20050;-79
2022/04/17 04:53:54;;;;;;;13.48;6.65;;;3.30;99.90;;;;;;4993392;28;20039;-79
2022/04/17 04:56:20;;;;;;;14.00;7.32;;;3.30;99.90;;;;;;4975807;28;20489;-79
2022/04/17 04:58:47;;;;;;;10.98;6.72;;;3.40;99.90;;;;;;4993309;28;20050;-79
2022/04/17 05:01:13;;;;;;;13.52;6.70;;;3.50;99.90;;;;;;4993236;28;20039;-79
2022/04/17 05:03:39;;;;;;;15.68;6.03;;;3.80;99.90;;;;;;4991006;28;20049;-79
2022/04/17 05:06:05;;;;;;;12.35;6.75;;;4.00;99.90;;;;;;4993624;28;20042;-79
2022/04/17 05:08:30;;;;;;;13.38;6.68;;;4.30;99.90;;;;;;4991901;28;20034;-79
2022/04/17 05:10:57;;;;;;;11.63;6.65;;;4.60;99.90;;;;;;4991755;28;20076;-79
2022/04/17 05:13:23;;;;;;;10.65;6.57;;;4.90;99.90;;;;;;4991794;28;20069;-79
2022/04/17 05:15:48;;;;;;;10.43;6.15;;;4.90;99.90;;;;;;4991622;28;20113;-79
2022/04/17 05:18:14;;;;;;;12.05;6.05;;;4.90;99.90;;;;;;4993074;28;20046;-79
2022/04/17 05:20:40;;;;;;;12.85;6.60;;;4.90;99.90;;;;;;4993149;28;20042;-79
2022/04/17 05:23:22;;;;;;;9.43;6.88;;;4.80;99.90;;;;;;4991851;28;20121;-79
2022/04/17 05:25:51;;;;;;;12.27;6.95;;;4.90;99.90;;;;;;4975453;28;20038;-79
2022/04/17 05:28:17;;;;;;;9.30;6.25;;;5.00;99.90;;;;;;4992482;28;20440;-79
2022/04/17 05:30:43;;;;;;;15.38;7.35;;;5.10;99.90;;;;;;4975208;28;20105;-79
2022/04/17 05:33:09;;;;;;;12.15;6.78;;;5.10;99.90;;;;;;5008024;28;20489;-79
2022/04/17 05:35:35;;;;;;;15.25;7.65;;;5.10;99.90;;;;;;4992873;28;20050;-80
2022/04/17 05:38:01;;;;;;;10.20;6.68;;;5.30;99.90;;;;;;4992848;28;20486;-79
2022/04/17 05:40:27;;;;;;;12.38;6.78;;;5.30;99.90;;;;;;4992147;28;20046;-79
2022/04/17 05:42:52;;;;;;;10.27;6.30;;;5.40;99.90;;;;;;4991522;28;20359;-79
2022/04/17 05:45:18;;;;;;;15.55;7.85;;;5.30;99.90;;;;;;4991183;28;20093;-79
2022/04/17 05:47:44;;;;;;;13.13;7.07;;;5.40;99.90;;;;;;4992356;28;20048;-79
2022/04/17 05:50:10;;;;;;;13.52;7.07;;;5.60;99.90;;;;;;4990942;28;20042;-79
2022/04/17 05:52:36;;;;;;;14.32;7.38;;;5.80;99.90;;;;;;5007679;28;20093;-79
2022/04/17 05:55:02;;;;;;;10.32;6.10;;;5.80;99.90;;;;;;4991156;28;20517;-79
2022/04/17 05:57:27;;;;;;;10.90;6.05;;;5.80;99.90;;;;;;4992227;28;20100;-79
2022/04/17 05:59:53;;;;;;;12.85;7.35;;;5.90;99.90;;;;;;5007536;28;20038;-80
2022/04/17 06:02:18;;;;;;;11.13;6.20;;;6.40;99.90;;;;;;4991157;28;20100;-79
2022/04/17 06:04:44;;;;;;;13.63;6.32;;;6.70;99.90;;;;;;4991476;28;20081;-80
2022/04/17 06:07:10;;;;;;;12.80;7.20;;;6.90;99.90;;;;;;4991219;28;20506;-79
2022/04/17 06:09:36;;;;;;;11.30;6.50;;;6.90;99.90;;;;;;4990766;28;20057;-79
2022/04/17 06:12:02;;;;;;;12.27;6.53;;;6.80;99.90;;;;;;4992440;28;20189;-79
2022/04/17 06:14:28;;;;;;;9.60;6.50;;;6.70;99.90;;;;;;4991743;28;20377;-79
2022/04/17 06:16:53;;;;;;;11.73;6.38;;;6.70;99.90;;;;;;4974655;28;20034;-79
2022/04/17 06:19:19;;;;;;;9.55;5.95;;;6.60;99.90;;;;;;4990766;28;20404;-79
2022/04/17 06:21:44;;;;;;;8.98;5.70;;;6.50;99.90;;;;;;4974841;28;20046;-80
2022/04/17 06:24:10;;;;;;;13.57;6.68;;;6.60;99.90;;;;;;4992224;28;20042;-79
2022/04/17 06:26:36;;;;;;;12.43;6.45;;;6.70;99.90;;;;;;4992254;28;20050;-79
2022/04/17 06:29:08;;;;;;;10.13;6.75;;;6.80;99.90;;;;;;4992056;28;20095;-80
2022/04/17 06:31:34;;;;;;;12.93;7.55;;;6.80;99.90;;;;;;4991878;28;20230;-79
2022/04/17 06:34:03;;;;;;;11.15;6.65;;;6.90;99.90;;;;;;4990464;28;20495;-79
2022/04/17 06:36:28;;;;;;;10.32;6.28;;;7.00;99.90;;;;;;5006724;28;20121;-79
2022/04/17 06:38:54;;;;;;;13.77;6.40;;;7.10;99.90;;;;;;4991808;28;20129;-80
2022/04/17 06:41:19;;;;;;;12.48;6.05;;;7.20;99.90;;;;;;4991764;28;20081;-81
2022/04/17 06:43:45;;;;;;;10.52;6.15;;;7.20;99.90;;;;;;4991332;28;20062;-80
2022/04/17 06:46:10;;;;;;;10.43;6.22;;;7.30;99.90;;;;;;4991143;28;20080;-80
2022/04/17 06:48:36;;;;;;;10.70;5.60;;;7.60;99.90;;;;;;4992269;28;20050;-80
2022/04/17 06:51:01;;;;;;;11.98;5.90;;;7.90;99.90;;;;;;4992163;28;20048;-80
2022/04/17 06:53:27;;;;;;;8.02;5.60;;;8.10;99.90;;;;;;4991698;28;20053;-80
2022/04/17 06:55:52;;;;;;;7.80;5.70;;;8.40;99.90;;;;;;4992610;28;20402;-80
2022/04/17 06:58:21;;;;;;;12.48;5.43;;;8.60;99.90;;;;;;4992222;28;20059;-80
2022/04/17 07:00:48;;;;;;;7.88;5.78;;;8.80;99.90;;;;;;4992320;28;20047;-79
2022/04/17 07:03:14;;;;;;;7.25;4.68;;;8.90;99.90;;;;;;4980573;28;20042;-79
2022/04/17 07:05:40;;;;;;;9.55;5.45;;;9.00;99.90;;;;;;5012020;28;20506;-80
2022/04/17 07:08:07;;;;;;;10.27;4.80;;;9.00;99.90;;;;;;5003188;28;20133;-79
2022/04/17 07:10:37;;;;;;;8.60;5.38;;;9.10;99.90;;;;;;4991116;28;20042;-80
2022/04/17 07:13:03;;;;;;;12.50;5.40;;;9.30;99.90;;;;;;4990227;28;20105;-80
2022/04/17 07:15:29;;;;;;;8.63;4.95;;;9.70;99.90;;;;;;4991456;28;20129;-80
2022/04/17 07:17:55;;;;;;;9.80;5.32;;;10.40;99.90;;;;;;4990013;28;20122;-80
2022/04/17 07:20:21;;;;;;;7.07;4.80;;;11.30;99.90;;;;;;4973828;28;20069;-80
2022/04/17 07:22:47;;;;;;;7.07;4.90;;;12.20;99.90;;;;;;4996046;28;20038;-79
2022/04/17 07:25:14;;;;;;;8.32;5.07;;;12.90;98.20;;;;;;4992462;28;20046;-80
2022/04/17 07:27:43;;;;;;;8.35;5.25;;;13.40;94.50;;;;;;4996836;28;20046;-80
2022/04/17 07:30:26;;;;;;;8.90;5.25;;;13.80;90.10;;;;;;4993667;28;20390;-80
2022/04/17 07:32:57;;;;;;;6.05;4.80;;;14.30;71.80;;;;;;4993733;28;20046;-80
2022/04/17 07:35:24;;;;;;;8.68;5.45;;;14.60;76.40;;;;;;4996444;28;20081;-80
2022/04/17 07:37:55;;;;;;;7.55;5.43;;;14.90;76.50;;;;;;4994033;28;20061;-81
2022/04/17 07:40:25;;;;;;;7.57;5.38;;;15.30;70.00;;;;;;4993641;28;20046;-82
2022/04/17 07:42:52;;;;;;;8.25;5.13;;;15.80;73.90;;;;;;4993199;28;20034;-80
2022/04/17 07:45:19;;;;;;;7.38;5.25;;;16.20;70.80;;;;;;4993012;28;20046;-81
2022/04/17 07:47:46;;;;;;;7.93;4.85;;;16.40;68.10;;;;;;4977782;28;20042;-81
2022/04/17 07:50:14;;;;;;;7.32;4.35;;;16.70;66.20;;;;;;4993684;28;20046;-81
2022/04/17 07:52:41;;;;;;;9.32;5.03;;;16.80;63.30;;;;;;4994739;28;20057;-80
2022/04/17 07:55:07;;;;;;;9.55;5.43;;;16.90;62.50;;;;;;4993905;28;20134;-81
2022/04/17 07:57:55;;;;;;;8.73;4.80;;;17.10;61.20;;;;;;4994254;28;20053;-82
2022/04/17 08:00:21;;;;;;;7.78;4.97;;;17.20;60.00;;;;;;4993310;28;20085;-81
2022/04/17 08:03:08;;;;;;;6.15;5.15;;;17.20;59.50;;;;;;4977208;28;20081;-80
2022/04/17 08:05:40;;;;;;;5.72;4.55;;;17.30;56.80;;;;;;4993320;28;20049;-81
2022/04/17 08:08:08;;;;;;;5.88;4.05;;;17.40;53.00;;;;;;4977825;28;20133;-81
2022/04/17 08:10:35;;;;;;;8.20;4.78;;;17.40;57.70;;;;;;4993120;28;20042;-80
2022/04/17 08:13:00;;;;;;;7.90;4.57;;;17.40;57.10;;;;;;4977770;28;20042;-80
2022/04/17 08:15:26;;;;;;;6.88;4.55;;;17.40;56.80;;;;;;4977731;28;20061;-79
2022/04/17 08:17:52;;;;;;;8.25;4.68;;;17.40;56.20;;;;;;4994129;28;20050;-81
2022/04/17 08:20:18;;;;;;;9.18;5.20;;;17.50;55.40;;;;;;4976908;28;20485;-81
2022/04/17 08:22:44;;;;;;;5.25;4.72;;;17.40;55.20;;;;;;4993364;28;20105;-80
2022/04/17 08:25:10;;;;;;;7.35;4.72;;;17.60;55.40;;;;;;4996107;28;20041;-82
2022/04/17 08:27:44;;;;;;;6.75;4.80;;;17.80;54.50;;;;;;5002124;28;20069;-82
2022/04/17 08:30:10;;;;;;;6.43;4.15;;;17.90;50.40;;;;;;4991882;28;20046;-82
2022/04/17 08:32:35;;;;;;;6.38;4.63;;;17.90;54.40;;;;;;4983049;28;20046;-82
2022/04/17 08:35:01;;;;;;;7.63;4.75;;;17.80;54.10;;;;;;5000043;28;20068;-82
2022/04/17 08:37:27;;;;;;;10.48;4.90;;;17.80;53.90;;;;;;5012037;28;20437;-81
2022/04/17 08:39:52;;;;;;;6.25;4.72;;;18.10;53.60;;;;;;4996982;28;20037;-81
2022/04/17 08:42:19;;;;;;;6.82;4.88;;;17.90;53.50;;;;;;5005273;28;20392;-81
2022/04/17 08:44:45;;;;;;;6.25;4.90;;;17.90;53.10;;;;;;4997590;28;20044;-81
2022/04/17 08:47:11;;;;;;;8.90;4.95;;;18.00;53.30;;;;;;4993798;28;20061;-80
2022/04/17 08:49:36;;;;;;;6.13;4.90;;;18.00;53.10;;;;;;4991124;28;20485;-82
2022/04/17 08:52:04;;;;;;;6.00;4.97;;;17.90;53.20;;;;;;4999964;28;20053;-82
2022/04/17 08:54:31;;;;;;;5.90;4.53;;;17.90;53.70;;;;;;4992908;28;20066;-81
2022/04/17 08:56:57;;;;;;;6.80;4.75;;;18.00;53.40;;;;;;5000746;28;20043;-80
2022/04/17 08:59:22;;;;;;;6.43;4.60;;;18.00;53.30;;;;;;4992163;28;20038;-81
2022/04/17 09:01:48;;;;;;;7.80;4.90;;;18.00;53.00;;;;;;4999440;28;20042;-82
2022/04/17 09:04:14;;;;;;;7.80;5.30;;;18.20;52.60;;;;;;4992189;28;20092;-82
2022/04/17 09:06:40;;;;;;;5.68;4.80;;;18.10;52.10;;;;;;4983176;28;20033;-80
2022/04/17 09:09:06;;;;;;;5.55;4.68;;;18.20;52.00;;;;;;5004582;28;20108;-82
2022/04/17 09:11:33;;;;;;;6.93;4.90;;;18.30;52.60;;;;;;5013215;28;20049;-82
2022/04/17 09:14:01;;;;;;;6.35;4.70;;;18.30;53.50;;;;;;4996277;28;20158;-81
2022/04/17 09:16:34;;;;;;;8.80;4.47;;;18.50;52.70;;;;;;4998954;28;20508;-80
2022/04/17 09:19:15;;;;;;;6.68;4.68;;;18.70;52.20;;;;;;4977783;28;20064;-77
2022/04/17 09:21:41;;;;;;;5.87;4.60;;;18.70;50.10;;;;;;5004413;28;20038;-80
2022/04/17 09:24:20;;;;;;;8.10;4.28;;;18.70;51.60;;;;;;5011288;28;20129;-80
2022/04/17 09:26:49;;;;;;;9.57;3.88;;;18.80;50.00;;;;;;5011328;28;20077;-79
2022/04/17 09:29:19;;;;;;;6.18;4.13;;;18.70;50.80;;;;;;5011797;28;20048;-79
2022/04/17 09:31:45;;;;;;;7.00;4.38;;;18.90;50.20;;;;;;5011287;28;20112;-80
2022/04/17 09:34:10;;;;;;;5.18;3.30;;;19.20;51.00;;;;;;5012522;28;20120;-80
2022/04/17 09:36:37;;;;;;;4.72;4.13;;;19.20;50.10;;;;;;5010953;28;20437;-80
2022/04/17 09:39:14;;;;;;;6.13;3.83;;;19.20;49.00;;;;;;5011447;28;20057;-79
2022/04/17 09:41:54;;;;;;;5.93;3.97;;;19.20;47.40;;;;;;5012240;28;20125;-79
2022/04/17 09:44:47;;;;;;;6.20;3.78;;;19.10;46.40;;;;;;5012102;28;20818;-79
2022/04/17 09:47:21;;;;;;;4.78;3.33;;;18.90;46.80;;;;;;5012145;28;20045;-79
2022/04/17 09:50:06;;;;;;;5.30;4.18;;;18.80;48.30;;;;;;5010204;28;20223;-79
2022/04/17 09:52:44;;;;;;;4.55;3.83;;;18.80;47.70;;;;;;5027203;28;20536;-79
2022/04/17 09:55:10;;;;;;;4.72;3.67;;;18.70;47.30;;;;;;5010687;28;20398;-79
2022/04/17 09:57:38;;;;;;;5.65;3.85;;;18.80;48.90;;;;;;5010731;28;20053;-82
2022/04/17 10:00:10;;;;;;;4.82;3.15;;;18.90;47.50;;;;;;5010476;28;20109;-81
2022/04/17 10:02:39;;;;;;;;;;;18.90;48.50;;;;;;5010913;28;20042;-81
2022/04/17 10:05:09;;;;;;;7.82;4.30;;;19.00;46.00;;;;;;5026910;28;19924;-81
2022/04/17 10:07:39;;;;;;;6.45;4.05;;;19.10;48.40;;;;;;4994691;28;20029;-84
2022/04/17 10:10:06;;;;;;;5.13;3.72;;;19.20;47.60;;;;;;5010993;28;20041;-84
2022/04/17 10:12:34;;;;;;;6.00;4.10;;;19.20;48.20;;;;;;5010758;28;20042;-84
2022/04/17 10:15:06;;;;;;;5.28;3.50;;;19.10;47.60;;;;;;5011064;28;20127;-84
2022/04/17 10:17:32;;;;;;;;;;;18.90;48.30;;;;;;5011080;28;20184;-84
2022/04/17 10:20:06;;;;;;;5.95;4.00;;;18.60;46.20;;;;;;5027163;28;20281;-83
2022/04/17 10:22:37;;;;;;;6.50;3.53;;;18.60;47.90;;;;;;5010873;28;20034;-84
2022/04/17 10:25:04;;;;;;;4.82;2.80;;;18.50;47.80;;;;;;4994310;28;20052;-83
2022/04/17 10:27:41;;;;;;;4.32;2.88;;;18.50;47.10;;;;;;5012726;28;20121;-84
2022/04/17 10:30:11;;;;;;;3.30;2.60;;;18.50;44.40;;;;;;5013974;28;20054;-83
2022/04/17 10:32:58;;;;;;;4.30;3.00;;;18.40;45.70;;;;;;5016091;28;20041;-84
2022/04/17 10:35:50;;;;;;;5.50;3.42;;;18.20;46.50;;;;;;5015050;28;20076;-83
2022/04/17 10:38:26;;;;;;;4.32;3.45;;;18.20;45.90;;;;;;5021745;28;20110;-82
2022/04/17 10:41:07;;;;;;;5.10;3.33;;;18.20;46.40;;;;;;5033798;28;20046;-83
2022/04/17 10:43:53;;;;;;;7.47;3.97;;;18.30;46.00;;;;;;5030646;28;20048;-83
2022/04/17 10:46:21;;;;;;;5.40;3.45;;;18.30;46.30;;;;;;5011500;28;20284;-83
2022/04/17 10:48:55;;;;;;;4.93;3.58;;;18.40;47.20;;;;;;5010145;28;20037;-83
2022/04/17 10:51:27;;;;;;;5.05;3.10;;;18.40;46.70;;;;;;4993902;28;20046;-83
2022/04/17 10:54:07;;;;;;;3.63;3.33;;;18.20;47.30;;;;;;5010623;28;20427;-83
2022/04/17 10:56:40;;;;;;;5.95;3.47;;;18.00;45.70;;;;;;5010621;28;20104;-84
2022/04/17 10:59:18;;;;;;;5.53;3.65;;;18.00;46.10;;;;;;5010415;28;20521;-83
2022/04/17 11:01:43;;;;;;;4.65;3.38;;;18.00;45.90;;;;;;5013226;28;20084;-83
2022/04/17 11:04:22;;;;;;;5.15;3.72;;;18.10;46.10;;;;;;5014474;28;20042;-83
2022/04/17 11:07:14;;;;;;;5.03;3.67;;;18.20;46.30;;;;;;5014071;28;20104;-83
2022/04/17 11:09:45;;;;;;;4.55;3.15;;;18.30;45.30;;;;;;5013944;28;20050;-83
2022/04/17 11:12:10;;;;;;;5.85;3.70;;;18.30;45.60;;;;;;5013919;28;20120;-84
2022/04/17 11:14:38;;;;;;;7.20;4.38;;;18.20;45.80;;;;;;5014086;28;20480;-84
2022/04/17 11:17:08;;;;;;;5.95;3.88;;;18.20;45.20;;;;;;5014017;28;20067;-83
2022/04/17 11:19:44;;;;;;;6.90;4.30;;;18.20;45.50;;;;;;5013895;28;20073;-83
2022/04/17 11:22:16;;;;;;;7.10;4.15;;;18.10;45.30;;;;;;5014160;28;20144;-84
2022/04/17 11:24:54;;;;;;;;;;;18.00;46.00;;;;;;5014305;28;20471;-83
2022/04/17 11:27:45;;;;;;;5.55;3.65;;;17.80;46.30;;;;;;5031163;28;19925;-83
2022/04/17 11:30:13;;;;;;;5.25;3.10;;;18.00;47.30;;;;;;5014248;28;20042;-82
2022/04/17 11:32:39;;;;;;;3.90;3.00;;;18.20;45.90;;;;;;5013974;28;20505;-83
2022/04/17 11:35:06;;;;;;;4.30;3.55;;;18.50;46.60;;;;;;5014432;28;20052;-83
2022/04/17 11:37:33;;;;;;;5.03;3.33;;;18.60;46.20;;;;;;5013188;28;20151;-83
2022/04/17 11:40:14;;;;;;;5.35;3.45;;;18.60;46.00;;;;;;5013059;28;20049;-83
2022/04/17 11:42:42;;;;;;;6.47;3.83;;;18.60;46.10;;;;;;5012981;28;20428;-83
2022/04/17 11:45:08;;;;;;;4.75;3.30;;;18.50;45.80;;;;;;5013394;28;20046;-82
2022/04/17 11:47:43;;;;;;;4.85;3.45;;;18.50;46.10;;;;;;5013632;28;20125;-82
2022/04/17 11:50:11;;;;;;;5.53;3.83;;;18.70;46.20;;;;;;5013454;28;20158;-82
2022/04/17 11:52:37;;;;;;;5.70;3.15;;;18.60;46.30;;;;;;5014804;28;20132;-83
2022/04/17 11:55:05;;;;;;;5.95;3.65;;;18.60;45.70;;;;;;5013384;28;20081;-83
2022/04/17 11:57:32;;;;;;;7.03;3.60;;;18.70;45.70;;;;;;5012911;28;20037;-82
2022/04/17 11:59:58;;;;;;;4.00;3.05;;;18.70;45.30;;;;;;4995843;28;20030;-83
2022/04/17 12:02:28;;;;;;;3.40;2.88;;;18.60;45.20;;;;;;4996496;28;20069;-83
2022/04/17 12:05:12;;;;;;;4.75;3.38;;;18.70;44.90;;;;;;4996293;28;20120;-83
2022/04/17 12:07:38;;;;;;;5.63;3.53;;;18.70;44.40;;;;;;4998150;28;20042;-83
2022/04/17 12:10:11;;;;;;;6.50;3.58;;;18.70;44.60;;;;;;5013304;28;20531;-84
2022/04/17 12:12:43;;;;;;;5.53;3.00;;;18.60;44.30;;;;;;4996487;28;20053;-81
2022/04/17 12:15:11;;;;;;;4.97;2.92;;;18.60;43.80;;;;;;4997130;28;20045;-85
2022/04/17 12:17:37;;;;;;;5.57;2.70;;;18.50;44.40;;;;;;5015478;28;20133;-83
2022/04/17 12:20:12;;;;;;;4.93;2.80;;;18.50;44.40;;;;;;4995845;28;20069;-84
2022/04/17 12:22:41;;;;;;;5.20;2.78;;;18.50;43.80;;;;;;5012329;28;20041;-84
2022/04/17 12:25:25;;;;;;;4.78;2.83;;;18.60;43.60;;;;;;5011198;28;20108;-84
2022/04/17 12:27:54;;;;;;;5.75;2.63;;;18.60;43.90;;;;;;4997239;28;20405;-83
2022/04/17 12:30:26;;;;;;;4.15;2.60;;;18.70;43.20;;;;;;5011822;28;20042;-84
2022/04/17 12:33:02;;;;;;;4.40;2.78;;;18.60;43.00;;;;;;5012332;28;20049;-84
2022/04/17 12:35:32;;;;;;;4.97;2.33;;;18.60;43.50;;;;;;4995786;28;20045;-83
2022/04/17 12:38:04;;;;;;;3.88;2.70;;;18.70;43.70;;;;;;4995574;28;20077;-84
2022/04/17 12:40:42;;;;;;;5.45;3.30;;;18.70;43.00;;;;;;5011808;28;20149;-83
2022/04/17 12:43:21;;;;;;;4.95;2.83;;;18.70;42.80;;;;;;5011843;28;20508;-83
2022/04/17 12:46:06;;;;;;;4.72;3.00;;;18.70;43.90;;;;;;5012152;28;20042;-83
2022/04/17 12:48:58;;;;;;;6.07;3.00;;;18.60;42.70;;;;;;4994401;28;20108;-83
2022/04/17 12:51:55;;;;;;;3.67;2.72;;;18.70;42.70;;;;;;5011238;28;20041;-84
2022/04/17 12:54:53;;;;;;;;;;;;;;;;;;;;;
2022/04/17 12:57:34;;;;;;;3.90;2.75;;;18.80;42.30;;;;;;5011489;28;20042;-83
2022/04/17 13:00:33;;;;;;;3.95;2.80;;;18.80;43.30;;;;;;4995178;28;20404;-83
2022/04/17 13:06:33;;;;;;;4.90;2.83;;;18.90;42.00;;;;;;5010602;28;20073;-84
2022/04/17 13:09:03;;;;;;;8.07;3.40;;;18.80;42.20;;;;;;5011957;28;20077;-83
2022/04/17 13:11:54;;;;;;;4.40;2.90;;;18.70;42.40;;;;;;5011590;28;20408;-83
2022/04/17 13:14:32;;;;;;;5.72;3.25;;;18.60;42.50;;;;;;5011524;28;20042;-83